Airfield :







YOU CAN JOIN US ON...

 
LOGIN :

Register | Disclaimer

   EN    FR    IT 

 









Legend :    VFR   Marginal VFR   IFR   Intensive IFR   Very Intensive IFR
Visi :
Ceiling :
>= 8 km
>= 3000ft
5 to 8 km
1000 to 3000 ft
1500m to 5 km
500 to 1000 ft
800 to 1500m
200 to 500 ft
< 800m
< 200 ft
Symbols :   Thunderstorms  Fog  Heavy snow  Heavy precipitations  Wind > 20 kt






- Airport Elevation : 603 ft
- IATA code : LEB


KLEB - Lebanon Municipal

CURRENT METAR :
  • 120553Z AUTO 31010KT 10SM CLR M04/M15 A3039 RMK AO2 SLP302 60000 T10441150 11006 21044 51054

EXPIRED METARs :
  • 120453Z AUTO 32008G19KT 10SM CLR M04/M16 A3034 RMK AO2 PK WND 31031/0425 SLP287 T10391161 400281039
  • 120353Z AUTO 30011G19KT 10SM SCT042 SCT050 M03/M10 A3029 RMK AO2 PK WND 33026/0316 WSHFT 0309 SNB19E37 SLP267 P0000 T10281100
  • 120336Z AUTO 30013G19KT 7SM -SN BKN040 OVC050 M03/M08 A3028 RMK AO2 PK WND 33026/0316 WSHFT 0309 SNB19 P0000 T10281083

TAF KLEB
Valid from the 12 at 06:00 until the 13 at 06:00 UTC


120520Z 1206/1306 29013KT P6SM FEW250
FM121000 26008KT P6SM FEW250
FM122200 VRB03KT P6SM SCT250



MET'MAP, your aeronautical weather chart ! - Copyright ORBIFLY December 2007 - Disclaimer

ORBIFLY MET'MAP TEAM :

Programming & Development : Alexandra Zaïnal
Concept & original design : Baudouin d'Aumeries
Assistance for programming : Marc-Olivier Méhu
Technical & hardware support : Manuel Goepfert

Contact : metmap@orbifly.com




SOURCES & CREDITS :

   NOAA